Yellow Mule RAWS (NWS)

Jump to table bottom
Date/Time Wind Direction Wind Speed knots Wind Gust knots RH % Accumulated Precip Inches Air Temp Fahrenheit
2022-08-17 12:04 NNE 5 11 21 10.78 70
2022-08-17 11:04 NNE 5 10 20 10.78 73
2022-08-17 10:04 NE 5 9 20 10.78 74
2022-08-17 09:04 NNE 3 7 23 10.78 68
2022-08-17 08:04 NNE 3 3 27 10.78 61
2022-08-17 07:04 NNE 3 4 25 10.78 57
2022-08-17 06:04 NNW 3 5 27 10.78 55
2022-08-17 05:04 NNE 3 7 27 10.78 55
2022-08-17 04:04 N 4 9 27 10.78 56
2022-08-17 03:04 NNW 6 9 25 10.78 56
2022-08-17 02:04 N 5 10 30 10.78 56
2022-08-17 01:04 NNW 10 12 33 10.78 57
2022-08-17 00:04 NNW 4 5 34 10.78 59
2022-08-16 23:04 NNW 2 3 33 10.78 60
2022-08-16 22:04 NNE 2 7 26 10.78 61
2022-08-16 21:04 NW 5 8 27 10.78 61
2022-08-16 20:04 W 5 10 24 10.78 65
2022-08-16 19:04 SW 7 12 23 10.78 69
2022-08-16 18:04 WSW 10 15 24 10.78 70
2022-08-16 17:04 SSW 11 18 25 10.78 71
2022-08-16 16:04 SW 10 19 26 10.78 72
2022-08-16 15:04 SSW 10 19 27 10.78 71
2022-08-16 14:04 SSW 13 21 28 10.78 70
2022-08-16 13:04 S 9 16 26 10.78 70
2022-08-16 12:04 SSE 5 12 31 10.78 71
2022-08-16 11:04 SE 5 8 29 10.78 72
2022-08-16 10:04 SE 5 8 29 10.78 69
2022-08-16 09:04 SSE 4 6 31 10.78 65
2022-08-16 08:04 SSE 3 5 37 10.78 58
2022-08-16 07:04 SSE 3 3 31 10.78 57
2022-08-16 06:04 SSE 3 4 31 10.78 56
2022-08-16 05:04 SE 3 5 32 10.78 55
2022-08-16 04:04 SSE 3 3 32 10.78 56
2022-08-16 03:04 N 1 3 31 10.78 56
2022-08-16 02:04 S 3 4 29 10.78 58
2022-08-16 01:04 SSE 3 5 30 10.78 57
2022-08-16 00:04 SE 3 4 32 10.78 56
2022-08-15 23:04 SSW 2 4 26 10.78 59
2022-08-15 22:04 NW 3 5 27 10.78 59
2022-08-15 21:04 NW 3 5 26 10.78 60
2022-08-15 20:04 WNW 4 9 27 10.78 62
2022-08-15 19:04 SW 5 10 25 10.78 66
2022-08-15 18:04 SW 4 16 22 10.78 68
2022-08-15 17:04 W 9 18 23 10.78 67
2022-08-15 16:04 WSW 9 18 27 10.78 68
2022-08-15 15:04 SW 10 18 25 10.78 67
2022-08-15 14:04 SSW 13 23 23 10.78 67
2022-08-15 13:04 SSW 16 23 25 10.78 65
2022-08-15 12:04 SSW 8 17 28 10.78 65